createdAt,value
2018-11-05T00:00:00.065Z,6.90
2018-11-05T00:02:34.966Z,6.50
2018-11-05T00:05:10.377Z,6.60
2018-11-05T00:07:45.650Z,6.70
2018-11-05T00:10:21.930Z,6.80
2018-11-05T00:12:58.650Z,6.80
2018-11-05T00:15:33.693Z,6.60
2018-11-05T00:18:09.267Z,6.50
2018-11-05T00:20:44.578Z,6.50
2018-11-05T00:23:20.010Z,6.70
2018-11-05T00:25:54.694Z,6.70
2018-11-05T00:28:30.922Z,6.70
2018-11-05T00:31:05.871Z,6.60
2018-11-05T00:33:40.685Z,6.60
2018-11-05T00:36:15.692Z,6.50
2018-11-05T00:38:50.398Z,6.50
2018-11-05T00:41:25.180Z,6.50
2018-11-05T00:44:08.066Z,6.30
2018-11-05T00:46:42.792Z,6.40
2018-11-05T00:49:17.623Z,6.50
2018-11-05T00:51:52.441Z,6.50
2018-11-05T00:54:27.134Z,6.50
2018-11-05T00:57:01.898Z,6.40
2018-11-05T00:59:37.613Z,6.30
2018-11-05T01:02:13.579Z,6.40
2018-11-05T01:04:48.678Z,6.40
2018-11-05T01:07:23.900Z,6.50
2018-11-05T01:09:58.726Z,6.60
2018-11-05T01:12:33.577Z,6.60
2018-11-05T01:15:12.289Z,6.60
2018-11-05T01:17:47.021Z,6.60
2018-11-05T01:20:22.052Z,6.60
2018-11-05T01:22:57.074Z,6.60
2018-11-05T01:25:31.934Z,6.60
2018-11-05T01:28:07.021Z,6.60
2018-11-05T01:30:42.093Z,6.50
2018-11-05T01:33:17.121Z,6.60
2018-11-05T01:35:52.183Z,6.50
2018-11-05T01:38:26.781Z,6.60
2018-11-05T01:41:01.771Z,6.60
2018-11-05T01:43:37.136Z,6.60
2018-11-05T01:46:11.969Z,6.50
2018-11-05T01:48:47.646Z,6.50
2018-11-05T01:51:22.458Z,6.50
2018-11-05T01:53:58.137Z,6.50
2018-11-05T01:56:33.245Z,6.40
2018-11-05T01:59:08.665Z,6.40
2018-11-05T02:01:44.054Z,6.50
2018-11-05T02:04:18.785Z,6.40
2018-11-05T02:06:53.677Z,6.40
2018-11-05T02:09:28.302Z,6.30
2018-11-05T02:12:03.145Z,6.20
2018-11-05T02:14:38.097Z,6.20
2018-11-05T02:17:13.120Z,6.30
2018-11-05T02:19:48.556Z,6.30
2018-11-05T02:22:23.392Z,6.30
2018-11-05T02:24:58.257Z,6.30
2018-11-05T02:27:32.942Z,6.40
2018-11-05T02:30:10.346Z,6.30
2018-11-05T02:32:45.776Z,6.30
2018-11-05T02:35:20.624Z,6.30
2018-11-05T02:37:56.106Z,6.30
2018-11-05T02:40:31.081Z,6.30
2018-11-05T02:43:06.190Z,6.40
2018-11-05T02:45:41.119Z,6.40
2018-11-05T02:48:16.071Z,6.40
2018-11-05T02:50:50.995Z,6.40
2018-11-05T02:53:25.891Z,6.50
2018-11-05T02:56:00.714Z,6.50
2018-11-05T02:58:35.402Z,6.50
2018-11-05T03:01:10.346Z,6.60
2018-11-05T03:03:45.590Z,6.60
2018-11-05T03:06:20.473Z,6.60
2018-11-05T03:08:55.315Z,6.50
2018-11-05T03:11:30.177Z,6.50
2018-11-05T03:14:05.022Z,6.50
2018-11-05T03:16:40.346Z,6.60
2018-11-05T03:19:16.401Z,6.50
2018-11-05T03:21:51.333Z,6.50
2018-11-05T03:24:26.720Z,6.50
2018-11-05T03:27:01.946Z,6.50
2018-11-05T03:29:37.143Z,6.50
2018-11-05T03:32:12.483Z,6.50
2018-11-05T03:34:47.367Z,6.60
2018-11-05T03:37:22.026Z,6.60
2018-11-05T03:39:56.937Z,6.60
2018-11-05T03:42:32.025Z,6.60
2018-11-05T03:45:08.617Z,6.60
2018-11-05T03:47:43.532Z,6.60
2018-11-05T03:50:19.118Z,6.60
2018-11-05T03:52:53.860Z,6.50
2018-11-05T03:55:28.620Z,6.60
2018-11-05T03:58:05.080Z,6.60
2018-11-05T04:00:41.338Z,6.70
2018-11-05T04:03:16.185Z,6.70
2018-11-05T04:05:51.386Z,6.70
2018-11-05T04:08:26.053Z,6.60
2018-11-05T04:11:00.964Z,6.60
2018-11-05T04:13:35.793Z,6.50
2018-11-05T04:16:10.851Z,6.50
2018-11-05T04:18:46.366Z,6.30
2018-11-05T04:21:20.997Z,6.40
2018-11-05T04:23:56.647Z,6.50
2018-11-05T04:26:32.229Z,6.50
2018-11-05T04:29:08.898Z,6.50
2018-11-05T04:31:43.703Z,6.40
2018-11-05T04:34:18.351Z,6.40
2018-11-05T04:36:53.176Z,6.40
2018-11-05T04:39:28.453Z,6.50
2018-11-05T04:42:04.485Z,6.40
2018-11-05T04:44:39.431Z,6.40
2018-11-05T04:47:14.202Z,6.50
2018-11-05T04:49:49.018Z,6.50
2018-11-05T04:52:24.209Z,6.40
2018-11-05T04:54:58.898Z,6.40
2018-11-05T04:57:34.285Z,6.20
2018-11-05T05:00:12.078Z,6.30
2018-11-05T05:02:47.397Z,6.30
2018-11-05T05:05:22.275Z,6.20
2018-11-05T05:07:57.862Z,6.20
2018-11-05T05:10:32.598Z,6.20
2018-11-05T05:13:07.764Z,6.20
2018-11-05T05:15:42.597Z,6.20
2018-11-05T05:18:17.416Z,6.20
2018-11-05T05:20:52.210Z,6.20
2018-11-05T05:23:27.226Z,6.20
2018-11-05T05:26:02.443Z,6.20
2018-11-05T05:28:37.428Z,6.20
2018-11-05T05:31:12.098Z,6.10
2018-11-05T05:33:46.926Z,6.00
2018-11-05T05:36:21.686Z,5.80
2018-11-05T05:38:57.138Z,5.80
2018-11-05T05:41:32.307Z,5.90
2018-11-05T05:44:07.031Z,6.00
2018-11-05T05:46:41.868Z,6.00
2018-11-05T05:49:16.634Z,5.80
2018-11-05T05:51:51.518Z,5.90
2018-11-05T05:54:26.657Z,5.90
2018-11-05T05:57:01.780Z,5.60
2018-11-05T05:59:36.614Z,5.80
2018-11-05T06:02:11.669Z,5.80
2018-11-05T06:04:46.549Z,5.90
2018-11-05T06:07:21.502Z,5.80
2018-11-05T06:09:56.923Z,5.60
2018-11-05T06:12:31.573Z,5.40
2018-11-05T06:15:09.240Z,5.40
2018-11-05T06:17:43.967Z,5.40
2018-11-05T06:20:20.525Z,5.50
2018-11-05T06:22:55.230Z,5.60
2018-11-05T06:25:30.338Z,5.60
2018-11-05T06:28:05.637Z,5.70
2018-11-05T06:30:40.706Z,5.60
2018-11-05T06:33:17.652Z,5.40
2018-11-05T06:35:52.673Z,5.40
2018-11-05T06:38:29.241Z,5.40
2018-11-05T06:41:05.525Z,5.40
2018-11-05T06:43:40.681Z,5.30
2018-11-05T06:46:16.374Z,5.50
2018-11-05T06:48:51.213Z,5.60
2018-11-05T06:51:26.270Z,5.60
2018-11-05T06:54:01.162Z,5.60
2018-11-05T06:56:35.998Z,5.70
2018-11-05T06:59:10.790Z,5.70
2018-11-05T07:01:45.551Z,5.80
2018-11-05T07:04:20.478Z,5.80
2018-11-05T07:06:55.383Z,5.80
2018-11-05T07:09:30.358Z,5.80
2018-11-05T07:12:05.503Z,5.90
2018-11-05T07:14:40.225Z,6.00
2018-11-05T07:17:15.009Z,5.60
2018-11-05T07:19:49.877Z,5.60
2018-11-05T07:22:24.725Z,5.90
2018-11-05T07:24:59.408Z,6.10
2018-11-05T07:27:34.225Z,6.20
2018-11-05T07:30:13.303Z,5.90
2018-11-05T07:32:49.961Z,6.10
2018-11-05T07:35:24.631Z,6.20
2018-11-05T07:37:59.465Z,6.30
2018-11-05T07:40:34.415Z,6.40
2018-11-05T07:43:10.150Z,6.40
2018-11-05T07:45:45.250Z,6.50
2018-11-05T07:48:20.332Z,6.60
2018-11-05T07:50:55.255Z,6.60
2018-11-05T07:53:30.153Z,6.70
2018-11-05T07:56:05.606Z,6.70
2018-11-05T07:58:40.391Z,6.70
2018-11-05T08:01:15.086Z,6.80
2018-11-05T08:03:49.900Z,6.80
2018-11-05T08:06:24.834Z,6.90
2018-11-05T08:08:59.470Z,7.00
2018-11-05T08:11:34.339Z,7.10
2018-11-05T08:14:09.552Z,7.10
2018-11-05T08:16:44.584Z,7.10
2018-11-05T08:19:19.534Z,7.20
2018-11-05T08:21:54.249Z,7.30
2018-11-05T08:24:29.093Z,7.20
2018-11-05T08:27:04.055Z,7.20
2018-11-05T08:29:39.494Z,7.40
2018-11-05T08:32:15.356Z,7.60
2018-11-05T08:34:49.994Z,7.70
2018-11-05T08:37:25.107Z,7.90
2018-11-05T08:39:59.921Z,7.80
2018-11-05T08:42:35.597Z,7.50
2018-11-05T08:45:11.992Z,7.40
2018-11-05T08:47:47.066Z,7.70
2018-11-05T08:50:23.261Z,7.90
2018-11-05T08:52:58.255Z,8.00
2018-11-05T08:55:33.031Z,8.10
2018-11-05T08:58:07.761Z,8.30
2018-11-05T09:00:47.895Z,8.30
2018-11-05T09:03:24.078Z,8.30
2018-11-05T09:05:59.854Z,8.40
2018-11-05T09:08:34.905Z,8.40
2018-11-05T09:11:10.136Z,8.60
2018-11-05T09:13:44.728Z,8.70
2018-11-05T09:16:19.606Z,8.80
2018-11-05T09:18:54.627Z,9.10
2018-11-05T09:21:30.193Z,9.10
2018-11-05T09:24:05.021Z,9.20
2018-11-05T09:26:39.705Z,9.20
2018-11-05T09:29:14.518Z,9.20
2018-11-05T09:31:49.307Z,9.30
2018-11-05T09:34:24.726Z,9.30
2018-11-05T09:37:00.069Z,9.20
2018-11-05T09:39:35.114Z,9.10
2018-11-05T09:42:10.494Z,9.10
2018-11-05T09:44:45.900Z,9.20
2018-11-05T09:47:20.759Z,9.40
2018-11-05T09:49:55.694Z,9.80
2018-11-05T09:52:30.894Z,10.20
2018-11-05T09:55:06.718Z,10.20
2018-11-05T09:57:41.875Z,10.50
2018-11-05T10:00:22.170Z,10.60
2018-11-05T10:03:28.024Z,10.90
2018-11-05T10:06:02.722Z,11.10
2018-11-05T10:08:38.237Z,11.10
2018-11-05T10:11:13.681Z,11.30
2018-11-05T10:13:48.521Z,11.40
2018-11-05T10:16:23.415Z,11.40
2018-11-05T10:18:59.297Z,11.70
2018-11-05T10:21:34.590Z,12.20
2018-11-05T10:24:09.473Z,12.40
2018-11-05T10:26:44.522Z,12.70
2018-11-05T10:29:19.241Z,13.50
2018-11-05T10:31:54.302Z,13.60
2018-11-05T10:34:29.005Z,14.70
2018-11-05T10:37:04.453Z,15.70
2018-11-05T10:39:39.790Z,16.70
2018-11-05T10:42:15.138Z,17.20
2018-11-05T10:44:50.522Z,16.50
2018-11-05T10:47:26.022Z,17.50
2018-11-05T10:50:01.232Z,18.00
2018-11-05T10:52:37.091Z,19.40
2018-11-05T10:55:12.499Z,18.60
2018-11-05T10:57:48.320Z,17.90
2018-11-05T11:00:28.643Z,18.50
2018-11-05T11:03:09.541Z,19.10
2018-11-05T11:05:45.030Z,20.60
2018-11-05T11:08:20.537Z,21.40
2018-11-05T11:10:55.761Z,22.50
2018-11-05T11:13:31.006Z,23.10
2018-11-05T11:16:06.286Z,23.50
2018-11-05T11:18:41.676Z,21.40
2018-11-05T11:21:16.933Z,22.30
2018-11-05T11:23:52.768Z,23.00
2018-11-05T11:26:27.624Z,24.70
2018-11-05T11:29:02.828Z,24.50
2018-11-05T11:31:44.661Z,25.10
2018-11-05T11:34:19.790Z,24.20
2018-11-05T11:36:54.908Z,24.10
2018-11-05T11:39:30.159Z,24.20
2018-11-05T11:42:05.480Z,25.10
2018-11-05T11:44:41.458Z,24.00
2018-11-05T11:47:17.719Z,23.20
2018-11-05T11:49:53.175Z,23.70
2018-11-05T11:52:28.728Z,23.40
2018-11-05T11:55:05.281Z,24.30
2018-11-05T11:57:41.146Z,25.50
2018-11-05T12:00:18.335Z,25.60
2018-11-05T12:02:54.205Z,26.70
2018-11-05T12:05:29.744Z,26.60
2018-11-05T12:08:04.950Z,26.90
2018-11-05T12:10:40.794Z,27.50
2018-11-05T12:13:15.862Z,27.80
2018-11-05T12:15:50.890Z,28.10
2018-11-05T12:18:26.017Z,28.40
2018-11-05T12:21:01.171Z,28.30
2018-11-05T12:23:36.422Z,28.00
2018-11-05T12:26:11.554Z,28.00
2018-11-05T12:28:47.800Z,32.20
2018-11-05T12:31:22.852Z,30.10
2018-11-05T12:33:58.424Z,29.10
2018-11-05T12:36:33.944Z,28.40
2018-11-05T12:39:10.642Z,28.20
2018-11-05T12:41:45.734Z,28.50
2018-11-05T12:44:21.647Z,27.80
2018-11-05T12:46:56.910Z,26.80
2018-11-05T12:49:32.160Z,26.40
2018-11-05T12:52:07.316Z,25.40
2018-11-05T12:54:42.718Z,23.50
2018-11-05T12:57:18.596Z,22.90
2018-11-05T12:59:54.110Z,22.30
2018-11-05T13:02:29.694Z,21.70
2018-11-05T13:05:06.196Z,21.60
2018-11-05T13:07:41.803Z,23.00
2018-11-05T13:10:17.119Z,24.80
2018-11-05T13:12:52.450Z,25.60
2018-11-05T13:15:28.175Z,26.40
2018-11-05T13:18:03.321Z,26.80
2018-11-05T13:20:38.393Z,25.80
2018-11-05T13:23:13.445Z,26.30
2018-11-05T13:25:49.213Z,25.70
2018-11-05T13:28:24.247Z,25.50
2018-11-05T13:31:00.187Z,25.40
2018-11-05T13:33:35.958Z,26.40
2018-11-05T13:36:11.122Z,26.40
2018-11-05T13:38:46.399Z,25.70
2018-11-05T13:41:21.626Z,24.80
2018-11-05T13:43:57.038Z,23.50
2018-11-05T13:46:32.863Z,22.80
2018-11-05T13:49:09.445Z,22.10
2018-11-05T13:51:44.404Z,21.70
2018-11-05T13:54:19.933Z,22.40
2018-11-05T13:56:55.566Z,24.30
2018-11-05T13:59:31.187Z,25.60
2018-11-05T14:02:07.135Z,26.40
2018-11-05T14:04:42.281Z,26.20
2018-11-05T14:07:17.452Z,25.10
2018-11-05T14:09:52.839Z,24.20
2018-11-05T14:12:28.513Z,23.70
2018-11-05T14:15:03.666Z,24.50
2018-11-05T14:17:39.770Z,24.80
2018-11-05T14:20:16.644Z,25.20
2018-11-05T14:22:51.934Z,25.70
2018-11-05T14:25:27.721Z,26.40
2018-11-05T14:28:03.248Z,26.10
2018-11-05T14:30:38.284Z,26.50
2018-11-05T14:33:13.606Z,26.20
2018-11-05T14:35:48.618Z,26.30
2018-11-05T14:38:23.936Z,25.80
2018-11-05T14:40:59.681Z,25.00
2018-11-05T14:43:35.460Z,23.60
2018-11-05T14:46:11.069Z,23.50
2018-11-05T14:48:46.617Z,22.50
2018-11-05T14:51:22.117Z,22.30
2018-11-05T14:53:57.540Z,22.80
2018-11-05T14:56:33.656Z,22.40
2018-11-05T14:59:08.926Z,21.70
2018-11-05T15:01:45.365Z,21.10
2018-11-05T15:04:20.743Z,20.30
2018-11-05T15:06:56.668Z,20.00
2018-11-05T15:09:31.979Z,19.70
2018-11-05T15:12:13.913Z,19.40
2018-11-05T15:14:49.402Z,19.20
2018-11-05T15:17:24.780Z,19.00
2018-11-05T15:20:01.310Z,18.70
2018-11-05T15:22:36.959Z,18.50
2018-11-05T15:25:13.390Z,18.30
2018-11-05T15:27:48.797Z,18.20
2018-11-05T15:30:24.202Z,18.00
2018-11-05T15:32:59.635Z,17.90
2018-11-05T15:35:35.333Z,17.70
2018-11-05T15:38:10.707Z,17.50
2018-11-05T15:40:46.001Z,17.30
2018-11-05T15:43:21.496Z,17.10
2018-11-05T15:45:57.166Z,16.90
2018-11-05T15:48:32.440Z,16.70
2018-11-05T15:51:08.661Z,16.50
2018-11-05T15:53:44.172Z,16.30
2018-11-05T15:56:19.697Z,16.10
2018-11-05T15:58:54.401Z,15.90
2018-11-05T16:01:29.338Z,15.70
2018-11-05T16:04:04.386Z,15.60
2018-11-05T16:06:39.211Z,15.50
2018-11-05T16:09:14.630Z,15.30
2018-11-05T16:11:49.716Z,15.20
2018-11-05T16:14:24.442Z,15.00
2018-11-05T16:17:00.014Z,14.90
2018-11-05T16:19:35.039Z,14.80
2018-11-05T16:22:09.709Z,14.60
2018-11-05T16:24:45.354Z,14.50
2018-11-05T16:27:21.601Z,14.40
2018-11-05T16:29:56.264Z,14.20
2018-11-05T16:32:31.247Z,14.10
2018-11-05T16:35:06.753Z,13.90
2018-11-05T16:37:42.568Z,13.80
2018-11-05T16:40:18.510Z,13.60
2018-11-05T16:42:53.166Z,13.50
2018-11-05T16:45:28.085Z,13.50
2018-11-05T16:48:03.253Z,13.30
2018-11-05T16:50:37.939Z,13.20
2018-11-05T16:53:12.753Z,13.10
2018-11-05T16:55:47.538Z,13.00
2018-11-05T16:58:22.429Z,12.90
2018-11-05T17:00:57.428Z,12.80
2018-11-05T17:03:32.932Z,12.70
2018-11-05T17:06:07.735Z,12.50
2018-11-05T17:08:42.534Z,12.40
2018-11-05T17:11:17.527Z,12.30
2018-11-05T17:13:52.720Z,12.30
2018-11-05T17:16:28.385Z,12.20
2018-11-05T17:19:04.069Z,12.10
2018-11-05T17:21:39.209Z,12.10
2018-11-05T17:24:14.019Z,12.00
2018-11-05T17:26:49.018Z,11.80
2018-11-05T17:29:23.955Z,11.70
2018-11-05T17:31:59.967Z,11.60
2018-11-05T17:34:34.606Z,11.50
2018-11-05T17:37:09.412Z,11.50
2018-11-05T17:39:45.164Z,11.50
2018-11-05T17:42:20.766Z,11.30
2018-11-05T17:44:55.541Z,11.30
2018-11-05T17:47:30.394Z,11.20
2018-11-05T17:50:06.867Z,11.20
2018-11-05T17:52:42.153Z,11.00
2018-11-05T17:55:16.887Z,11.00
2018-11-05T17:57:51.901Z,11.00
2018-11-05T18:00:26.819Z,10.80
2018-11-05T18:03:02.895Z,10.80
2018-11-05T18:05:37.632Z,10.70
2018-11-05T18:08:12.402Z,10.50
2018-11-05T18:10:48.029Z,10.50
2018-11-05T18:13:29.431Z,10.50
2018-11-05T18:16:04.619Z,10.50
2018-11-05T18:18:40.502Z,10.40
2018-11-05T18:21:15.445Z,10.30
2018-11-05T18:23:50.403Z,10.30
2018-11-05T18:26:25.355Z,10.20
2018-11-05T18:29:00.238Z,10.00
2018-11-05T18:31:35.205Z,10.00
2018-11-05T18:34:10.257Z,10.00
2018-11-05T18:36:46.074Z,9.90
2018-11-05T18:39:21.761Z,9.80
2018-11-05T18:41:57.062Z,9.80
2018-11-05T18:44:31.990Z,9.80
2018-11-05T18:47:06.864Z,9.70
2018-11-05T18:49:42.308Z,9.70
2018-11-05T18:52:17.094Z,9.70
2018-11-05T18:54:51.969Z,9.60
2018-11-05T18:57:26.787Z,9.50
2018-11-05T19:00:01.600Z,9.40
2018-11-05T19:02:36.349Z,9.20
2018-11-05T19:05:11.393Z,9.30
2018-11-05T19:07:46.502Z,9.30
2018-11-05T19:10:21.377Z,9.20
2018-11-05T19:12:56.691Z,9.20
2018-11-05T19:15:31.630Z,9.20
2018-11-05T19:18:07.294Z,9.10
2018-11-05T19:20:42.829Z,9.00
2018-11-05T19:23:17.709Z,8.90
2018-11-05T19:25:52.693Z,8.80
2018-11-05T19:28:27.634Z,8.90
2018-11-05T19:31:02.746Z,8.80
2018-11-05T19:33:37.724Z,8.70
2018-11-05T19:36:13.194Z,8.40
2018-11-05T19:38:48.159Z,8.50
2018-11-05T19:41:23.161Z,8.50
2018-11-05T19:43:58.981Z,8.50
2018-11-05T19:46:33.791Z,8.50
2018-11-05T19:49:08.562Z,8.50
2018-11-05T19:51:43.510Z,8.40
2018-11-05T19:54:18.486Z,8.40
2018-11-05T19:56:53.370Z,8.30
2018-11-05T19:59:28.111Z,8.10
2018-11-05T20:02:03.918Z,8.20
2018-11-05T20:04:39.444Z,8.00
2018-11-05T20:07:14.255Z,7.70
2018-11-05T20:09:49.351Z,7.70
2018-11-05T20:12:24.258Z,7.70
2018-11-05T20:15:00.237Z,7.70
2018-11-05T20:17:35.454Z,7.70
2018-11-05T20:20:12.106Z,7.80
2018-11-05T20:22:47.032Z,7.80
2018-11-05T20:25:22.298Z,7.70
2018-11-05T20:27:57.238Z,7.80
2018-11-05T20:30:32.058Z,7.80
2018-11-05T20:33:07.596Z,7.70
2018-11-05T20:35:42.425Z,7.60
2018-11-05T20:38:17.683Z,7.60
2018-11-05T20:40:52.427Z,7.40
2018-11-05T20:43:28.660Z,7.50
2018-11-05T20:46:03.411Z,7.50
2018-11-05T20:48:38.428Z,7.50
2018-11-05T20:51:13.523Z,7.60
2018-11-05T20:53:48.531Z,7.60
2018-11-05T20:56:23.559Z,7.50
2018-11-05T20:58:58.309Z,7.50
2018-11-05T21:01:33.133Z,7.40
2018-11-05T21:04:08.038Z,7.30
2018-11-05T21:06:42.948Z,7.30
2018-11-05T21:09:18.035Z,7.20
2018-11-05T21:11:55.245Z,7.30
2018-11-05T21:14:30.627Z,7.30
2018-11-05T21:17:06.262Z,7.30
2018-11-05T21:19:41.122Z,7.30
2018-11-05T21:22:16.268Z,7.20
2018-11-05T21:24:51.298Z,7.20
2018-11-05T21:27:26.064Z,7.20
2018-11-05T21:30:01.019Z,7.10
2018-11-05T21:32:36.082Z,7.10
2018-11-05T21:35:13.028Z,7.50
2018-11-05T21:37:48.217Z,7.30
2018-11-05T21:40:23.142Z,7.60
2018-11-05T21:42:58.045Z,7.40
2018-11-05T21:45:32.839Z,7.70
2018-11-05T21:48:07.674Z,7.40
2018-11-05T21:50:43.155Z,7.30
2018-11-05T21:53:18.001Z,7.60
2018-11-05T21:55:53.379Z,7.30
2018-11-05T21:58:28.614Z,7.10
2018-11-05T22:01:04.010Z,7.40
2018-11-05T22:03:38.181Z,6.90
2018-11-05T22:06:12.356Z,6.80
2018-11-05T22:08:46.382Z,6.70
2018-11-05T22:11:20.158Z,6.60
2018-11-05T22:13:55.105Z,6.50
2018-11-05T22:16:29.769Z,6.60
2018-11-05T22:19:04.898Z,6.90
2018-11-05T22:21:39.678Z,7.20
2018-11-05T22:24:14.758Z,7.30
2018-11-05T22:26:50.090Z,7.50
2018-11-05T22:29:25.306Z,7.40
2018-11-05T22:32:00.361Z,7.50
2018-11-05T22:34:35.567Z,7.40
2018-11-05T22:37:10.585Z,7.50
2018-11-05T22:39:45.603Z,7.10
2018-11-05T22:42:20.757Z,6.90
2018-11-05T22:44:55.826Z,6.50
2018-11-05T22:47:31.148Z,6.40
2018-11-05T22:50:06.906Z,6.40
2018-11-05T22:52:42.577Z,6.30
2018-11-05T22:55:18.146Z,6.20
2018-11-05T22:57:53.198Z,6.20
2018-11-05T23:00:33.496Z,6.20
2018-11-05T23:03:13.522Z,6.10
2018-11-05T23:05:48.251Z,6.00
2018-11-05T23:08:22.841Z,5.60
2018-11-05T23:10:58.041Z,5.70
2018-11-05T23:13:32.977Z,5.80
2018-11-05T23:16:08.434Z,5.90
2018-11-05T23:18:44.191Z,6.30
2018-11-05T23:21:19.727Z,6.60
2018-11-05T23:23:54.959Z,6.80
2018-11-05T23:26:30.466Z,6.80
2018-11-05T23:29:06.273Z,6.90
2018-11-05T23:31:41.900Z,6.80
2018-11-05T23:34:16.771Z,6.80
2018-11-05T23:36:52.984Z,6.70
2018-11-05T23:39:27.825Z,6.70
2018-11-05T23:42:03.288Z,6.60
2018-11-05T23:44:38.498Z,6.80
2018-11-05T23:47:14.265Z,6.70
2018-11-05T23:49:49.153Z,6.70
2018-11-05T23:52:24.652Z,6.70
2018-11-05T23:54:59.865Z,6.80
2018-11-05T23:57:34.939Z,6.60
